createdAt,value
2023-03-26T00:01:40.580Z,0.90
2023-03-26T00:04:14.036Z,0.95
2023-03-26T00:06:41.873Z,0.80
2023-03-26T00:09:11.138Z,0.80
2023-03-26T00:11:38.473Z,1.00
2023-03-26T00:14:05.908Z,1.20
2023-03-26T00:16:33.828Z,1.10
2023-03-26T00:19:01.906Z,0.70
2023-03-26T00:21:31.142Z,0.80
2023-03-26T00:24:04.620Z,0.80
2023-03-26T00:26:33.857Z,0.80
2023-03-26T00:29:03.597Z,0.80
2023-03-26T00:31:31.310Z,0.90
2023-03-26T00:33:58.697Z,0.90
2023-03-26T00:36:27.016Z,0.90
2023-03-26T00:38:54.608Z,1.05
2023-03-26T00:41:26.829Z,0.68
2023-03-26T00:43:56.936Z,0.90
2023-03-26T00:46:25.759Z,0.80
2023-03-26T00:48:52.884Z,0.98
2023-03-26T00:51:21.509Z,0.60
2023-03-26T00:53:50.095Z,1.48
2023-03-26T00:56:17.749Z,0.70
2023-03-26T00:58:45.115Z,0.80
2023-03-26T01:01:15.563Z,1.00
2023-03-26T01:06:32.917Z,0.80
2023-03-26T01:09:14.761Z,0.93
2023-03-26T01:11:42.212Z,0.90
2023-03-26T01:14:23.739Z,1.08
2023-03-26T01:16:56.567Z,0.90
2023-03-26T01:19:52.810Z,0.90
2023-03-26T01:22:23.513Z,0.77
2023-03-26T01:24:56.857Z,0.77
2023-03-26T01:27:52.158Z,0.80
2023-03-26T01:30:43.273Z,0.75
2023-03-26T01:33:36.717Z,0.85
2023-03-26T01:36:21.830Z,1.00
2023-03-26T01:38:48.858Z,0.80
2023-03-26T01:41:44.305Z,0.80
2023-03-26T01:44:19.768Z,1.00
2023-03-26T01:46:47.855Z,0.70
2023-03-26T01:49:14.909Z,0.85
2023-03-26T01:51:42.921Z,0.90
2023-03-26T01:54:14.879Z,0.93
2023-03-26T01:56:52.411Z,0.95
2023-03-26T01:59:47.397Z,0.93
2023-03-26T02:02:42.726Z,0.98
2023-03-26T02:05:22.214Z,0.77
2023-03-26T02:08:00.093Z,1.02
2023-03-26T02:10:30.238Z,1.08
2023-03-26T02:12:59.149Z,1.00
2023-03-26T02:15:26.397Z,1.00
2023-03-26T02:17:54.355Z,0.93
2023-03-26T02:20:21.989Z,0.85
2023-03-26T02:22:49.195Z,0.80
2023-03-26T02:25:20.616Z,0.75
2023-03-26T02:27:50.738Z,0.90
2023-03-26T02:30:26.740Z,0.98
2023-03-26T02:32:59.555Z,1.08
2023-03-26T02:35:32.332Z,1.10
2023-03-26T02:38:01.496Z,0.77
2023-03-26T02:40:28.855Z,0.88
2023-03-26T02:42:56.540Z,0.98
2023-03-26T02:45:24.206Z,0.93
2023-03-26T02:48:20.611Z,1.10
2023-03-26T02:50:54.610Z,1.17
2023-03-26T02:53:41.453Z,1.02
2023-03-26T02:56:31.552Z,0.82
2023-03-26T02:59:21.633Z,0.98
2023-03-26T03:01:59.110Z,1.00
2023-03-26T03:04:26.190Z,0.95
2023-03-26T03:06:57.934Z,1.48
2023-03-26T03:09:26.171Z,1.00
2023-03-26T03:12:11.861Z,1.00
2023-03-26T03:14:39.242Z,1.00
2023-03-26T03:17:06.722Z,0.82
2023-03-26T03:19:38.001Z,0.90
2023-03-26T03:22:05.509Z,0.85
2023-03-26T03:24:34.354Z,0.75
2023-03-26T03:27:02.166Z,1.40
2023-03-26T03:29:39.466Z,1.10
2023-03-26T03:32:32.601Z,1.05
2023-03-26T03:35:03.627Z,1.00
2023-03-26T03:37:31.199Z,1.02
2023-03-26T03:40:00.241Z,1.02
2023-03-26T03:42:31.001Z,1.20
2023-03-26T03:47:47.647Z,0.93
2023-03-26T03:50:19.550Z,0.80
2023-03-26T03:53:01.297Z,1.00
2023-03-26T03:55:28.903Z,1.00
2023-03-26T03:57:57.017Z,1.40
2023-03-26T04:00:25.279Z,1.15
2023-03-26T04:03:14.449Z,1.00
2023-03-26T04:08:11.141Z,1.10
2023-03-26T04:10:45.906Z,0.90
2023-03-26T04:13:15.973Z,0.80
2023-03-26T04:16:00.700Z,1.20
2023-03-26T04:18:37.865Z,1.10
2023-03-26T04:21:18.937Z,1.20
2023-03-26T04:24:01.881Z,0.88
2023-03-26T04:26:51.186Z,1.05
2023-03-26T04:29:25.821Z,1.20
2023-03-26T04:32:06.770Z,1.38
2023-03-26T04:34:37.018Z,1.23
2023-03-26T04:37:23.824Z,0.80
2023-03-26T04:40:10.726Z,0.90
2023-03-26T04:42:46.430Z,0.90
2023-03-26T04:45:23.018Z,0.93
2023-03-26T04:48:00.961Z,1.10
2023-03-26T04:50:28.327Z,0.90
2023-03-26T04:52:59.433Z,0.55
2023-03-26T04:55:56.383Z,0.80
2023-03-26T04:58:43.480Z,1.25
2023-03-26T05:01:11.393Z,1.00
2023-03-26T05:03:49.122Z,1.10
2023-03-26T05:06:22.515Z,0.98
2023-03-26T05:08:50.138Z,0.90
2023-03-26T05:11:36.323Z,1.05
2023-03-26T05:14:03.702Z,0.90
2023-03-26T05:16:32.044Z,0.70
2023-03-26T05:19:07.164Z,0.90
2023-03-26T05:21:36.310Z,0.90
2023-03-26T05:24:03.383Z,0.75
2023-03-26T05:26:30.557Z,0.90
2023-03-26T05:28:57.768Z,2.17
2023-03-26T05:31:31.771Z,1.00
2023-03-26T05:34:03.656Z,0.90
2023-03-26T05:36:30.883Z,0.80
2023-03-26T05:39:26.579Z,1.00
2023-03-26T05:42:31.950Z,0.90
2023-03-26T05:45:13.246Z,0.93
2023-03-26T05:47:41.240Z,1.00
2023-03-26T05:50:09.986Z,1.00
2023-03-26T05:52:40.000Z,0.75
2023-03-26T05:55:28.269Z,1.15
2023-03-26T05:58:14.199Z,0.93
2023-03-26T06:01:00.170Z,1.00
2023-03-26T06:03:39.195Z,1.00
2023-03-26T06:06:21.463Z,1.00
2023-03-26T06:09:01.006Z,1.10
2023-03-26T06:11:32.342Z,0.85
2023-03-26T06:14:03.467Z,1.23
2023-03-26T06:19:22.129Z,1.05
2023-03-26T06:21:57.136Z,1.40
2023-03-26T06:24:48.785Z,1.23
2023-03-26T06:27:51.269Z,1.30
2023-03-26T06:30:44.474Z,1.30
2023-03-26T06:33:47.116Z,1.60
2023-03-26T06:36:14.750Z,1.05
2023-03-26T06:38:42.052Z,1.00
2023-03-26T06:41:10.114Z,1.25
2023-03-26T06:43:54.127Z,1.55
2023-03-26T06:46:39.899Z,1.17
2023-03-26T06:49:36.236Z,0.80
2023-03-26T06:52:19.194Z,1.20
2023-03-26T06:54:46.359Z,1.50
2023-03-26T06:57:36.598Z,1.13
2023-03-26T07:00:30.140Z,0.82
2023-03-26T07:03:17.441Z,0.90
2023-03-26T07:06:03.119Z,1.10
2023-03-26T07:08:48.749Z,0.80
2023-03-26T07:11:45.359Z,1.30
2023-03-26T07:14:32.794Z,1.02
2023-03-26T07:17:09.614Z,1.02
2023-03-26T07:19:53.787Z,1.30
2023-03-26T07:22:25.437Z,1.02
2023-03-26T07:25:05.234Z,1.15
2023-03-26T07:28:05.189Z,1.30
2023-03-26T07:31:14.000Z,1.08
2023-03-26T07:33:48.768Z,1.10
2023-03-26T07:36:36.314Z,1.35
2023-03-26T07:39:52.394Z,1.25
2023-03-26T07:42:57.569Z,0.95
2023-03-26T07:46:01.237Z,1.75
2023-03-26T07:48:49.725Z,1.67
2023-03-26T07:51:37.447Z,1.10
2023-03-26T07:54:27.928Z,1.42
2023-03-26T07:57:33.364Z,1.38
2023-03-26T08:00:44.348Z,1.00
2023-03-26T08:03:16.319Z,1.37
2023-03-26T08:06:08.466Z,1.23
2023-03-26T08:08:57.969Z,1.10
2023-03-26T08:11:58.313Z,1.20
2023-03-26T08:14:44.126Z,1.20
2023-03-26T08:17:15.207Z,0.93
2023-03-26T08:20:06.052Z,0.90
2023-03-26T08:22:43.416Z,0.73
2023-03-26T08:25:19.480Z,1.02
2023-03-26T08:28:00.784Z,1.30
2023-03-26T08:30:28.062Z,1.08
2023-03-26T08:32:56.903Z,0.85
2023-03-26T08:35:28.440Z,1.10
2023-03-26T08:37:55.604Z,0.90
2023-03-26T08:41:03.000Z,1.08
2023-03-26T08:43:41.937Z,0.90
2023-03-26T08:46:15.996Z,1.40
2023-03-26T08:49:04.051Z,1.30
2023-03-26T08:51:53.304Z,0.93
2023-03-26T08:54:41.605Z,1.00
2023-03-26T08:57:08.750Z,0.80
2023-03-26T09:00:13.110Z,0.98
2023-03-26T09:03:11.593Z,0.80
2023-03-26T09:05:56.809Z,0.90
2023-03-26T09:08:37.027Z,0.70
2023-03-26T09:11:35.425Z,0.80
2023-03-26T09:14:21.355Z,1.00
2023-03-26T09:17:00.422Z,1.05
2023-03-26T09:19:45.805Z,0.95
2023-03-26T09:22:56.397Z,1.00
2023-03-26T09:28:32.327Z,1.10
2023-03-26T09:31:21.995Z,0.85
2023-03-26T09:33:56.158Z,0.90
2023-03-26T09:36:38.292Z,0.95
2023-03-26T09:39:17.742Z,1.50
2023-03-26T09:42:06.925Z,0.82
2023-03-26T09:44:56.687Z,1.10
2023-03-26T09:47:48.749Z,1.27
2023-03-26T09:50:27.017Z,0.90
2023-03-26T09:53:03.662Z,1.33
2023-03-26T09:55:42.268Z,1.27
2023-03-26T09:58:36.291Z,0.93
2023-03-26T10:01:21.349Z,1.00
2023-03-26T10:03:54.584Z,0.80
2023-03-26T10:06:33.696Z,1.40
2023-03-26T10:09:24.037Z,1.75
2023-03-26T10:11:56.909Z,5.15
2023-03-26T10:14:41.420Z,16.17
2023-03-26T10:17:44.871Z,21.25
2023-03-26T10:20:18.626Z,15.00
2023-03-26T10:23:16.666Z,13.68
2023-03-26T10:25:43.642Z,14.95
2023-03-26T10:28:29.248Z,16.55
2023-03-26T10:31:06.366Z,31.58
2023-03-26T10:34:01.648Z,37.08
2023-03-26T10:36:46.780Z,5.40
2023-03-26T10:39:37.055Z,34.97
2023-03-26T10:42:15.745Z,27.83
2023-03-26T10:44:58.634Z,21.05
2023-03-26T10:48:02.061Z,9.27
2023-03-26T10:50:51.902Z,11.10
2023-03-26T10:53:44.058Z,10.70
2023-03-26T10:56:47.020Z,12.98
2023-03-26T10:59:16.121Z,3.60
2023-03-26T11:02:30.283Z,14.18
2023-03-26T11:05:16.480Z,14.15
2023-03-26T11:07:58.814Z,2.78
2023-03-26T11:10:50.248Z,1.58
2023-03-26T11:13:40.659Z,2.22
2023-03-26T11:16:34.005Z,11.45
2023-03-26T11:19:22.506Z,11.98
2023-03-26T11:22:15.986Z,8.48
2023-03-26T11:25:09.080Z,12.25
2023-03-26T11:27:43.003Z,9.98
2023-03-26T11:30:28.524Z,20.92
2023-03-26T11:33:06.553Z,10.75
2023-03-26T11:35:41.873Z,15.65
2023-03-26T11:38:28.926Z,12.52
2023-03-26T11:40:58.436Z,7.68
2023-03-26T11:43:50.157Z,29.95
2023-03-26T11:46:20.997Z,12.30
2023-03-26T11:48:57.735Z,20.50
2023-03-26T11:51:33.312Z,8.40
2023-03-26T11:54:01.674Z,12.32
2023-03-26T11:56:38.247Z,6.68
2023-03-26T11:59:13.821Z,11.45
2023-03-26T12:02:12.920Z,11.10
2023-03-26T12:04:43.476Z,14.68
2023-03-26T12:07:32.199Z,5.93
2023-03-26T12:10:18.499Z,10.07
2023-03-26T12:12:48.012Z,8.45
2023-03-26T12:15:19.836Z,13.80
2023-03-26T12:17:49.387Z,10.77
2023-03-26T12:20:25.987Z,17.45
2023-03-26T12:22:59.234Z,14.52
2023-03-26T12:25:32.845Z,22.13
2023-03-26T12:28:02.731Z,16.42
2023-03-26T12:30:41.461Z,11.27
2023-03-26T12:33:22.318Z,8.68
2023-03-26T12:35:52.479Z,12.70
2023-03-26T12:38:33.490Z,13.10
2023-03-26T12:44:43.535Z,11.57
2023-03-26T12:44:56.403Z,17.30
2023-03-26T12:47:58.717Z,11.70
2023-03-26T12:50:16.571Z,12.80
2023-03-26T12:53:00.354Z,12.93
2023-03-26T12:55:42.570Z,17.48
2023-03-26T12:58:34.236Z,18.05
2023-03-26T13:01:03.984Z,3.35
2023-03-26T13:04:06.152Z,7.32
2023-03-26T13:06:58.932Z,6.82
2023-03-26T13:09:48.085Z,11.93
2023-03-26T13:12:23.924Z,4.70
2023-03-26T13:15:08.067Z,3.40
2023-03-26T13:18:07.796Z,6.68
2023-03-26T13:20:43.416Z,6.78
2023-03-26T13:23:28.077Z,7.10
2023-03-26T13:25:55.039Z,9.80
2023-03-26T13:28:57.972Z,5.75
2023-03-26T13:31:37.035Z,5.10
2023-03-26T13:34:28.409Z,7.43
2023-03-26T13:37:06.146Z,4.05
2023-03-26T13:40:10.613Z,7.25
2023-03-26T13:42:56.927Z,6.38
2023-03-26T13:45:47.803Z,15.63
2023-03-26T13:48:28.247Z,9.15
2023-03-26T13:53:40.938Z,6.13
2023-03-26T13:56:11.880Z,10.80
2023-03-26T13:58:42.237Z,12.00
2023-03-26T14:01:22.023Z,12.13
2023-03-26T14:04:32.221Z,4.30
2023-03-26T14:07:11.472Z,12.02
2023-03-26T14:10:03.734Z,8.43
2023-03-26T14:12:51.372Z,9.18
2023-03-26T14:15:26.785Z,7.97
2023-03-26T14:18:07.946Z,5.60
2023-03-26T14:21:12.689Z,6.68
2023-03-26T14:24:06.910Z,5.78
2023-03-26T14:26:40.685Z,5.35
2023-03-26T14:29:18.893Z,9.20
2023-03-26T14:32:09.247Z,5.97
2023-03-26T14:34:36.758Z,4.60
2023-03-26T14:37:07.463Z,6.55
2023-03-26T14:39:54.188Z,2.95
2023-03-26T14:42:56.607Z,6.97
2023-03-26T14:45:36.959Z,5.78
2023-03-26T14:48:48.548Z,7.32
2023-03-26T14:51:42.500Z,4.43
2023-03-26T14:54:17.429Z,4.57
2023-03-26T14:56:53.493Z,5.35
2023-03-26T14:59:44.995Z,3.63
2023-03-26T15:02:24.356Z,4.25
2023-03-26T15:04:54.514Z,3.47
2023-03-26T15:07:52.819Z,5.18
2023-03-26T15:10:35.219Z,4.90
2023-03-26T15:13:29.808Z,6.38
2023-03-26T15:15:59.865Z,2.55
2023-03-26T15:18:32.771Z,3.08
2023-03-26T15:21:12.317Z,5.53
2023-03-26T15:24:01.299Z,3.60
2023-03-26T15:27:05.345Z,3.03
2023-03-26T15:29:44.390Z,4.50
2023-03-26T15:32:49.622Z,3.35
2023-03-26T15:35:19.559Z,7.00
2023-03-26T15:38:04.910Z,2.50
2023-03-26T15:40:41.858Z,6.68
2023-03-26T15:43:17.966Z,3.75
2023-03-26T15:45:47.659Z,3.50
2023-03-26T15:48:36.833Z,2.92
2023-03-26T15:51:08.145Z,3.00
2023-03-26T15:54:07.807Z,4.95
2023-03-26T15:56:58.138Z,7.28
2023-03-26T15:59:54.343Z,6.38
2023-03-26T16:02:21.945Z,3.40
2023-03-26T16:05:03.305Z,4.97
2023-03-26T16:07:40.142Z,2.92
2023-03-26T16:10:28.575Z,7.90
2023-03-26T16:13:15.037Z,10.02
2023-03-26T16:15:43.048Z,5.40
2023-03-26T16:18:10.488Z,4.63
2023-03-26T16:21:32.177Z,4.80
2023-03-26T16:24:02.800Z,8.90
2023-03-26T16:26:36.501Z,13.43
2023-03-26T16:29:19.242Z,8.30
2023-03-26T16:32:11.032Z,11.10
2023-03-26T16:34:53.066Z,7.28
2023-03-26T16:37:33.753Z,6.30
2023-03-26T16:40:21.862Z,15.02
2023-03-26T16:43:24.410Z,9.57
2023-03-26T16:46:25.835Z,9.63
2023-03-26T16:48:59.653Z,5.18
2023-03-26T16:51:51.166Z,7.57
2023-03-26T16:54:46.805Z,3.38
2023-03-26T16:57:24.204Z,5.60
2023-03-26T17:00:07.097Z,4.45
2023-03-26T17:02:55.317Z,6.10
2023-03-26T17:05:53.023Z,5.05
2023-03-26T17:08:36.794Z,3.22
2023-03-26T17:11:22.271Z,2.38
2023-03-26T17:14:04.627Z,0.90
2023-03-26T17:16:46.076Z,2.70
2023-03-26T17:19:37.432Z,1.88
2023-03-26T17:22:30.142Z,2.20
2023-03-26T17:25:37.202Z,2.17
2023-03-26T17:28:40.734Z,2.88
2023-03-26T17:31:39.524Z,2.47
2023-03-26T17:34:34.776Z,3.35
2023-03-26T17:37:29.568Z,2.05
2023-03-26T17:40:02.435Z,2.13
2023-03-26T17:42:35.631Z,2.00
2023-03-26T17:45:08.306Z,2.85
2023-03-26T17:47:40.703Z,2.75
2023-03-26T17:50:18.300Z,2.58
2023-03-26T17:52:53.744Z,2.47
2023-03-26T17:55:26.089Z,3.17
2023-03-26T17:58:00.557Z,2.35
2023-03-26T18:00:35.355Z,2.33
2023-03-26T18:03:09.227Z,3.03
2023-03-26T18:05:39.624Z,2.53
2023-03-26T18:08:21.829Z,1.23
2023-03-26T18:11:15.561Z,2.72
2023-03-26T18:13:48.766Z,2.90
2023-03-26T18:16:40.825Z,2.78
2023-03-26T18:19:19.665Z,2.50
2023-03-26T18:21:50.513Z,2.78
2023-03-26T18:24:29.701Z,1.85
2023-03-26T18:27:01.781Z,2.25
2023-03-26T18:29:35.415Z,2.80
2023-03-26T18:32:23.697Z,1.92
2023-03-26T18:35:13.631Z,2.20
2023-03-26T18:37:44.283Z,1.80
2023-03-26T18:40:20.357Z,1.75
2023-03-26T18:42:52.991Z,1.55
2023-03-26T18:45:36.291Z,1.50
2023-03-26T18:48:13.886Z,2.47
2023-03-26T18:50:42.356Z,1.60
2023-03-26T18:53:22.367Z,2.80
2023-03-26T18:55:50.974Z,2.47
2023-03-26T18:58:28.356Z,3.33
2023-03-26T19:01:01.446Z,1.42
2023-03-26T19:03:32.231Z,2.72
2023-03-26T19:06:04.775Z,2.17
2023-03-26T19:08:35.439Z,2.05
2023-03-26T19:11:04.946Z,1.98
2023-03-26T19:13:33.914Z,2.00
2023-03-26T19:16:04.890Z,2.05
2023-03-26T19:18:31.883Z,1.55
2023-03-26T19:21:01.424Z,2.80
2023-03-26T19:23:33.036Z,2.93
2023-03-26T19:26:02.666Z,2.20
2023-03-26T19:28:39.813Z,1.70
2023-03-26T19:31:32.112Z,1.67
2023-03-26T19:34:18.044Z,1.85
2023-03-26T19:37:01.279Z,1.38
2023-03-26T19:39:41.921Z,2.50
2023-03-26T19:42:15.195Z,1.83
2023-03-26T19:44:43.196Z,2.05
2023-03-26T19:47:48.401Z,1.33
2023-03-26T19:50:23.508Z,1.83
2023-03-26T19:53:16.049Z,1.85
2023-03-26T19:55:54.430Z,1.77
2023-03-26T19:58:21.738Z,2.70
2023-03-26T20:00:48.743Z,2.30
2023-03-26T20:03:22.052Z,2.33
2023-03-26T20:05:55.114Z,2.22
2023-03-26T20:08:27.294Z,2.38
2023-03-26T20:11:04.443Z,2.70
2023-03-26T20:13:31.597Z,1.90
2023-03-26T20:16:06.486Z,1.70
2023-03-26T20:18:34.810Z,2.50
2023-03-26T20:21:02.171Z,1.92
2023-03-26T20:23:29.256Z,2.08
2023-03-26T20:25:56.641Z,3.17
2023-03-26T20:28:24.690Z,2.10
2023-03-26T20:30:54.658Z,2.45
2023-03-26T20:33:27.862Z,2.35
2023-03-26T20:35:57.630Z,1.80
2023-03-26T20:38:38.936Z,1.60
2023-03-26T20:41:12.151Z,2.60
2023-03-26T20:43:39.255Z,1.83
2023-03-26T20:46:06.850Z,2.13
2023-03-26T20:48:34.199Z,1.65
2023-03-26T20:51:01.897Z,1.70
2023-03-26T20:53:31.908Z,2.17
2023-03-26T20:56:00.160Z,1.95
2023-03-26T20:58:30.721Z,1.50
2023-03-26T21:01:01.302Z,1.48
2023-03-26T21:03:28.561Z,2.58
2023-03-26T21:06:00.327Z,1.65
2023-03-26T21:08:34.167Z,2.10
2023-03-26T21:11:02.694Z,2.25
2023-03-26T21:13:48.269Z,2.30
2023-03-26T21:16:15.601Z,1.80
2023-03-26T21:18:42.986Z,2.00
2023-03-26T21:21:28.741Z,1.38
2023-03-26T21:24:09.452Z,1.73
2023-03-26T21:26:58.714Z,1.25
2023-03-26T21:29:25.946Z,2.60
2023-03-26T21:31:54.179Z,1.90
2023-03-26T21:34:23.101Z,1.55
2023-03-26T21:36:50.841Z,1.88
2023-03-26T21:39:18.417Z,1.80
2023-03-26T21:42:05.377Z,1.75
2023-03-26T21:44:33.723Z,1.50
2023-03-26T21:47:01.010Z,1.70
2023-03-26T21:49:28.538Z,1.27
2023-03-26T21:51:56.029Z,1.50
2023-03-26T21:54:28.703Z,1.55
2023-03-26T21:57:10.882Z,0.82
2023-03-26T21:59:43.825Z,1.42
2023-03-26T22:02:24.518Z,1.50
2023-03-26T22:04:57.312Z,1.52
2023-03-26T22:07:34.264Z,1.70
2023-03-26T22:10:01.289Z,1.70
2023-03-26T22:12:28.317Z,2.08
2023-03-26T22:14:55.364Z,1.13
2023-03-26T22:17:23.157Z,2.25
2023-03-26T22:19:50.153Z,1.20
2023-03-26T22:22:17.140Z,1.90
2023-03-26T22:24:44.126Z,1.67
2023-03-26T22:27:13.256Z,1.92
2023-03-26T22:29:40.248Z,1.38
2023-03-26T22:32:07.277Z,2.00
2023-03-26T22:34:35.193Z,1.73
2023-03-26T22:37:02.287Z,1.40
2023-03-26T22:39:29.387Z,1.60
2023-03-26T22:41:56.998Z,2.00
2023-03-26T22:44:24.034Z,2.50
2023-03-26T22:46:51.708Z,1.15
2023-03-26T22:49:19.236Z,1.33
2023-03-26T22:51:46.920Z,1.83
2023-03-26T22:54:15.499Z,1.55
2023-03-26T22:56:43.739Z,1.70
2023-03-26T22:59:10.875Z,1.58
2023-03-26T23:01:38.151Z,1.75
2023-03-26T23:04:05.224Z,2.50
2023-03-26T23:06:32.480Z,1.52
2023-03-26T23:08:59.623Z,1.92
2023-03-26T23:11:27.112Z,1.83
2023-03-26T23:13:54.108Z,1.42
2023-03-26T23:16:21.801Z,1.70
2023-03-26T23:18:49.183Z,1.23
2023-03-26T23:21:21.790Z,0.98
2023-03-26T23:23:50.551Z,0.82
2023-03-26T23:26:18.057Z,2.00
2023-03-26T23:28:45.139Z,1.48
2023-03-26T23:31:13.339Z,1.60
2023-03-26T23:33:50.743Z,1.00
2023-03-26T23:36:19.391Z,1.10
2023-03-26T23:38:48.352Z,1.10
2023-03-26T23:41:18.848Z,1.33
2023-03-26T23:43:54.878Z,1.15
2023-03-26T23:46:24.916Z,1.15
2023-03-26T23:48:52.926Z,1.20
2023-03-26T23:51:21.274Z,1.85
2023-03-26T23:53:49.485Z,1.25
2023-03-26T23:56:17.702Z,1.20
2023-03-26T23:58:44.956Z,1.05
